Terminal Aerodrome Forecast
Issued by NWS Jacksonville, FL

Current Version | Previous Version | Text Only | Print | Product List | Glossary On
Versions: 1 2 3 4 5 6 7 8 9 10 11 12 13 14 15 16 17 18 19 20 21
356
FTUS42 KJAX 040543
TAFSSI
TAF
KSSI 040543Z 0406/0506 25007KT P6SM -SHRA SCT025 BKN120 OVC250
     FM040700 25008KT P6SM VCTS SCT020 SCT035CB OVC100
      TEMPO 0407/0411 VRB15G25KT 3SM +TSRA SCT015 BKN030CB OVC070
     FM041200 28009KT P6SM VCSH SCT020 BKN040 OVC100
     FM041500 30010KT P6SM SCT040 SCT150=

USA.gov is the U.S. government's official web portal to all federal, state and local government web resources and services.